<?xml version="1.0" encoding="UTF-8" ?>
<gpx version="1.1" xmlns:xsi="http://www.w3.org/2001/XMLSchema-instance" 
    xmlns="http://www.topografix.com/GPX/1/1" 
    xsi:schemaLocation="http://www.topografix.com/GPX/1/1 http://www.topografix.com/GPX/1/1/gpx.xsd" 
    creator="Openrunner - https://www.openrunner.com" >	<trk>
						<name>14551085-Le Tour de Romanin</name>
						<trkseg>
					<trkpt lat="43.768390" lon="4.893360">
						<ele>110</ele>
						<time>2022-04-11T06:46:07Z</time>
					</trkpt>
					<trkpt lat="43.768290" lon="4.893040">
						<ele>111</ele>
						<time>2022-04-11T06:46:41Z</time>
					</trkpt>
					<trkpt lat="43.768410" lon="4.892900">
						<ele>111</ele>
						<time>2022-04-11T06:47:02Z</time>
					</trkpt>
					<trkpt lat="43.768860" lon="4.889110">
						<ele>125</ele>
						<time>2022-04-11T06:53:12Z</time>
					</trkpt>
					<trkpt lat="43.768920" lon="4.888430">
						<ele>125</ele>
						<time>2022-04-11T06:54:18Z</time>
					</trkpt>
					<trkpt lat="43.768760" lon="4.888090">
						<ele>125</ele>
						<time>2022-04-11T06:54:57Z</time>
					</trkpt>
					<trkpt lat="43.768550" lon="4.888120">
						<ele>125</ele>
						<time>2022-04-11T06:55:25Z</time>
					</trkpt>
					<trkpt lat="43.768470" lon="4.889480">
						<ele>123</ele>
						<time>2022-04-11T06:57:36Z</time>
					</trkpt>
					<trkpt lat="43.768400" lon="4.889770">
						<ele>122</ele>
						<time>2022-04-11T06:58:06Z</time>
					</trkpt>
					<trkpt lat="43.768240" lon="4.889930">
						<ele>121</ele>
						<time>2022-04-11T06:58:32Z</time>
					</trkpt>
					<trkpt lat="43.767910" lon="4.889860">
						<ele>122</ele>
						<time>2022-04-11T06:59:17Z</time>
					</trkpt>
					<trkpt lat="43.767850" lon="4.889880">
						<ele>121</ele>
						<time>2022-04-11T06:59:25Z</time>
					</trkpt>
					<trkpt lat="43.767960" lon="4.889930">
						<ele>121</ele>
						<time>2022-04-11T06:59:41Z</time>
					</trkpt>
					<trkpt lat="43.767800" lon="4.889850">
						<ele>122</ele>
						<time>2022-04-11T07:00:03Z</time>
					</trkpt>
					<trkpt lat="43.767550" lon="4.889870">
						<ele>121</ele>
						<time>2022-04-11T07:00:37Z</time>
					</trkpt>
					<trkpt lat="43.767410" lon="4.889830">
						<ele>122</ele>
						<time>2022-04-11T07:00:56Z</time>
					</trkpt>
					<trkpt lat="43.767040" lon="4.889790">
						<ele>123</ele>
						<time>2022-04-11T07:01:45Z</time>
					</trkpt>
					<trkpt lat="43.766950" lon="4.889810">
						<ele>123</ele>
						<time>2022-04-11T07:01:57Z</time>
					</trkpt>
					<trkpt lat="43.766780" lon="4.889770">
						<ele>124</ele>
						<time>2022-04-11T07:02:20Z</time>
					</trkpt>
					<trkpt lat="43.766470" lon="4.889740">
						<ele>126</ele>
						<time>2022-04-11T07:03:02Z</time>
					</trkpt>
					<trkpt lat="43.765890" lon="4.889720">
						<ele>131</ele>
						<time>2022-04-11T07:04:19Z</time>
					</trkpt>
					<trkpt lat="43.765810" lon="4.889670">
						<ele>131</ele>
						<time>2022-04-11T07:04:31Z</time>
					</trkpt>
					<trkpt lat="43.765600" lon="4.889700">
						<ele>133</ele>
						<time>2022-04-11T07:04:59Z</time>
					</trkpt>
					<trkpt lat="43.764960" lon="4.889590">
						<ele>137</ele>
						<time>2022-04-11T07:06:25Z</time>
					</trkpt>
					<trkpt lat="43.764800" lon="4.889600">
						<ele>139</ele>
						<time>2022-04-11T07:06:47Z</time>
					</trkpt>
					<trkpt lat="43.764610" lon="4.889730">
						<ele>141</ele>
						<time>2022-04-11T07:07:15Z</time>
					</trkpt>
					<trkpt lat="43.764510" lon="4.889890">
						<ele>142</ele>
						<time>2022-04-11T07:07:35Z</time>
					</trkpt>
					<trkpt lat="43.764560" lon="4.890180">
						<ele>141</ele>
						<time>2022-04-11T07:08:04Z</time>
					</trkpt>
					<trkpt lat="43.764570" lon="4.890470">
						<ele>139</ele>
						<time>2022-04-11T07:08:32Z</time>
					</trkpt>
					<trkpt lat="43.764640" lon="4.890780">
						<ele>137</ele>
						<time>2022-04-11T07:09:03Z</time>
					</trkpt>
					<trkpt lat="43.764640" lon="4.891250">
						<ele>134</ele>
						<time>2022-04-11T07:09:49Z</time>
					</trkpt>
					<trkpt lat="43.764580" lon="4.891850">
						<ele>130</ele>
						<time>2022-04-11T07:10:47Z</time>
					</trkpt>
					<trkpt lat="43.764510" lon="4.892090">
						<ele>129</ele>
						<time>2022-04-11T07:11:12Z</time>
					</trkpt>
					<trkpt lat="43.764420" lon="4.892280">
						<ele>129</ele>
						<time>2022-04-11T07:11:34Z</time>
					</trkpt>
					<trkpt lat="43.764340" lon="4.892680">
						<ele>128</ele>
						<time>2022-04-11T07:12:14Z</time>
					</trkpt>
					<trkpt lat="43.764350" lon="4.893020">
						<ele>129</ele>
						<time>2022-04-11T07:12:47Z</time>
					</trkpt>
					<trkpt lat="43.764260" lon="4.893520">
						<ele>131</ele>
						<time>2022-04-11T07:13:36Z</time>
					</trkpt>
					<trkpt lat="43.764360" lon="4.894290">
						<ele>134</ele>
						<time>2022-04-11T07:14:52Z</time>
					</trkpt>
					<trkpt lat="43.764310" lon="4.894610">
						<ele>134</ele>
						<time>2022-04-11T07:15:23Z</time>
					</trkpt>
					<trkpt lat="43.764140" lon="4.895120">
						<ele>135</ele>
						<time>2022-04-11T07:16:17Z</time>
					</trkpt>
					<trkpt lat="43.764130" lon="4.895290">
						<ele>135</ele>
						<time>2022-04-11T07:16:34Z</time>
					</trkpt>
					<trkpt lat="43.764300" lon="4.896160">
						<ele>134</ele>
						<time>2022-04-11T07:18:01Z</time>
					</trkpt>
					<trkpt lat="43.764300" lon="4.896280">
						<ele>134</ele>
						<time>2022-04-11T07:18:12Z</time>
					</trkpt>
					<trkpt lat="43.764150" lon="4.896960">
						<ele>135</ele>
						<time>2022-04-11T07:19:21Z</time>
					</trkpt>
					<trkpt lat="43.763950" lon="4.897700">
						<ele>139</ele>
						<time>2022-04-11T07:20:37Z</time>
					</trkpt>
					<trkpt lat="43.763960" lon="4.897750">
						<ele>139</ele>
						<time>2022-04-11T07:20:42Z</time>
					</trkpt>
					<trkpt lat="43.763990" lon="4.897750">
						<ele>138</ele>
						<time>2022-04-11T07:20:46Z</time>
					</trkpt>
					<trkpt lat="43.763980" lon="4.897710">
						<ele>138</ele>
						<time>2022-04-11T07:20:50Z</time>
					</trkpt>
					<trkpt lat="43.763890" lon="4.897630">
						<ele>139</ele>
						<time>2022-04-11T07:21:04Z</time>
					</trkpt>
					<trkpt lat="43.763900" lon="4.897650">
						<ele>139</ele>
						<time>2022-04-11T07:21:07Z</time>
					</trkpt>
					<trkpt lat="43.763670" lon="4.897500">
						<ele>140</ele>
						<time>2022-04-11T07:21:41Z</time>
					</trkpt>
					<trkpt lat="43.763490" lon="4.897490">
						<ele>142</ele>
						<time>2022-04-11T07:22:05Z</time>
					</trkpt>
					<trkpt lat="43.762910" lon="4.897830">
						<ele>154</ele>
						<time>2022-04-11T07:23:29Z</time>
					</trkpt>
					<trkpt lat="43.762700" lon="4.897810">
						<ele>157</ele>
						<time>2022-04-11T07:23:57Z</time>
					</trkpt>
					<trkpt lat="43.762550" lon="4.897640">
						<ele>160</ele>
						<time>2022-04-11T07:24:23Z</time>
					</trkpt>
					<trkpt lat="43.762470" lon="4.897430">
						<ele>162</ele>
						<time>2022-04-11T07:24:45Z</time>
					</trkpt>
					<trkpt lat="43.762340" lon="4.897320">
						<ele>167</ele>
						<time>2022-04-11T07:25:06Z</time>
					</trkpt>
					<trkpt lat="43.762190" lon="4.897240">
						<ele>173</ele>
						<time>2022-04-11T07:25:27Z</time>
					</trkpt>
					<trkpt lat="43.762040" lon="4.897210">
						<ele>178</ele>
						<time>2022-04-11T07:25:47Z</time>
					</trkpt>
					<trkpt lat="43.761930" lon="4.897230">
						<ele>182</ele>
						<time>2022-04-11T07:26:02Z</time>
					</trkpt>
					<trkpt lat="43.761840" lon="4.897110">
						<ele>185</ele>
						<time>2022-04-11T07:26:19Z</time>
					</trkpt>
					<trkpt lat="43.761710" lon="4.897100">
						<ele>190</ele>
						<time>2022-04-11T07:26:36Z</time>
					</trkpt>
					<trkpt lat="43.761550" lon="4.897030">
						<ele>197</ele>
						<time>2022-04-11T07:26:59Z</time>
					</trkpt>
					<trkpt lat="43.761430" lon="4.897020">
						<ele>202</ele>
						<time>2022-04-11T07:27:15Z</time>
					</trkpt>
					<trkpt lat="43.761360" lon="4.897080">
						<ele>206</ele>
						<time>2022-04-11T07:27:26Z</time>
					</trkpt>
					<trkpt lat="43.761340" lon="4.897180">
						<ele>206</ele>
						<time>2022-04-11T07:27:36Z</time>
					</trkpt>
					<trkpt lat="43.761290" lon="4.897200">
						<ele>209</ele>
						<time>2022-04-11T07:27:43Z</time>
					</trkpt>
					<trkpt lat="43.761240" lon="4.897120">
						<ele>211</ele>
						<time>2022-04-11T07:27:53Z</time>
					</trkpt>
					<trkpt lat="43.761160" lon="4.897120">
						<ele>215</ele>
						<time>2022-04-11T07:28:04Z</time>
					</trkpt>
					<trkpt lat="43.761100" lon="4.897160">
						<ele>218</ele>
						<time>2022-04-11T07:28:12Z</time>
					</trkpt>
					<trkpt lat="43.760960" lon="4.897080">
						<ele>225</ele>
						<time>2022-04-11T07:28:33Z</time>
					</trkpt>
					<trkpt lat="43.760910" lon="4.897080">
						<ele>227</ele>
						<time>2022-04-11T07:28:39Z</time>
					</trkpt>
					<trkpt lat="43.760980" lon="4.897050">
						<ele>224</ele>
						<time>2022-04-11T07:28:49Z</time>
					</trkpt>
					<trkpt lat="43.761030" lon="4.896900">
						<ele>222</ele>
						<time>2022-04-11T07:29:05Z</time>
					</trkpt>
					<trkpt lat="43.760950" lon="4.896700">
						<ele>226</ele>
						<time>2022-04-11T07:29:27Z</time>
					</trkpt>
					<trkpt lat="43.760970" lon="4.896820">
						<ele>225</ele>
						<time>2022-04-11T07:29:39Z</time>
					</trkpt>
					<trkpt lat="43.760950" lon="4.896870">
						<ele>226</ele>
						<time>2022-04-11T07:29:44Z</time>
					</trkpt>
					<trkpt lat="43.760950" lon="4.896820">
						<ele>226</ele>
						<time>2022-04-11T07:29:49Z</time>
					</trkpt>
					<trkpt lat="43.760910" lon="4.896860">
						<ele>228</ele>
						<time>2022-04-11T07:29:56Z</time>
					</trkpt>
					<trkpt lat="43.760760" lon="4.896920">
						<ele>234</ele>
						<time>2022-04-11T07:30:17Z</time>
					</trkpt>
					<trkpt lat="43.760680" lon="4.897000">
						<ele>236</ele>
						<time>2022-04-11T07:30:30Z</time>
					</trkpt>
					<trkpt lat="43.760600" lon="4.897010">
						<ele>239</ele>
						<time>2022-04-11T07:30:41Z</time>
					</trkpt>
					<trkpt lat="43.760540" lon="4.896850">
						<ele>242</ele>
						<time>2022-04-11T07:30:58Z</time>
					</trkpt>
					<trkpt lat="43.760340" lon="4.896800">
						<ele>249</ele>
						<time>2022-04-11T07:31:25Z</time>
					</trkpt>
					<trkpt lat="43.760270" lon="4.896910">
						<ele>251</ele>
						<time>2022-04-11T07:31:39Z</time>
					</trkpt>
					<trkpt lat="43.760150" lon="4.896900">
						<ele>255</ele>
						<time>2022-04-11T07:31:55Z</time>
					</trkpt>
					<trkpt lat="43.760030" lon="4.896790">
						<ele>260</ele>
						<time>2022-04-11T07:32:14Z</time>
					</trkpt>
					<trkpt lat="43.759860" lon="4.896700">
						<ele>259</ele>
						<time>2022-04-11T07:32:39Z</time>
					</trkpt>
					<trkpt lat="43.759800" lon="4.896630">
						<ele>260</ele>
						<time>2022-04-11T07:32:49Z</time>
					</trkpt>
					<trkpt lat="43.759790" lon="4.896750">
						<ele>258</ele>
						<time>2022-04-11T07:33:01Z</time>
					</trkpt>
					<trkpt lat="43.759740" lon="4.896820">
						<ele>257</ele>
						<time>2022-04-11T07:33:10Z</time>
					</trkpt>
					<trkpt lat="43.759670" lon="4.896790">
						<ele>256</ele>
						<time>2022-04-11T07:33:20Z</time>
					</trkpt>
					<trkpt lat="43.759570" lon="4.896620">
						<ele>256</ele>
						<time>2022-04-11T07:33:41Z</time>
					</trkpt>
					<trkpt lat="43.759570" lon="4.896550">
						<ele>257</ele>
						<time>2022-04-11T07:33:48Z</time>
					</trkpt>
					<trkpt lat="43.759500" lon="4.896510">
						<ele>257</ele>
						<time>2022-04-11T07:33:58Z</time>
					</trkpt>
					<trkpt lat="43.759570" lon="4.896360">
						<ele>262</ele>
						<time>2022-04-11T07:34:15Z</time>
					</trkpt>
					<trkpt lat="43.759530" lon="4.896280">
						<ele>263</ele>
						<time>2022-04-11T07:34:25Z</time>
					</trkpt>
					<trkpt lat="43.759590" lon="4.896270">
						<ele>264</ele>
						<time>2022-04-11T07:34:33Z</time>
					</trkpt>
					<trkpt lat="43.759550" lon="4.896320">
						<ele>262</ele>
						<time>2022-04-11T07:34:40Z</time>
					</trkpt>
					<trkpt lat="43.759580" lon="4.896320">
						<ele>263</ele>
						<time>2022-04-11T07:34:44Z</time>
					</trkpt>
					<trkpt lat="43.759460" lon="4.896120">
						<ele>265</ele>
						<time>2022-04-11T07:35:09Z</time>
					</trkpt>
					<trkpt lat="43.759440" lon="4.896010">
						<ele>267</ele>
						<time>2022-04-11T07:35:20Z</time>
					</trkpt>
					<trkpt lat="43.759410" lon="4.895970">
						<ele>267</ele>
						<time>2022-04-11T07:35:25Z</time>
					</trkpt>
					<trkpt lat="43.759370" lon="4.895980">
						<ele>266</ele>
						<time>2022-04-11T07:35:31Z</time>
					</trkpt>
					<trkpt lat="43.759310" lon="4.896060">
						<ele>262</ele>
						<time>2022-04-11T07:35:42Z</time>
					</trkpt>
					<trkpt lat="43.759270" lon="4.896360">
						<ele>256</ele>
						<time>2022-04-11T07:36:11Z</time>
					</trkpt>
					<trkpt lat="43.759100" lon="4.896220">
						<ele>254</ele>
						<time>2022-04-11T07:36:38Z</time>
					</trkpt>
					<trkpt lat="43.759060" lon="4.896220">
						<ele>254</ele>
						<time>2022-04-11T07:36:43Z</time>
					</trkpt>
					<trkpt lat="43.759020" lon="4.896290">
						<ele>251</ele>
						<time>2022-04-11T07:36:52Z</time>
					</trkpt>
					<trkpt lat="43.758940" lon="4.896290">
						<ele>250</ele>
						<time>2022-04-11T07:37:02Z</time>
					</trkpt>
					<trkpt lat="43.758910" lon="4.896340">
						<ele>248</ele>
						<time>2022-04-11T07:37:09Z</time>
					</trkpt>
					<trkpt lat="43.758890" lon="4.896310">
						<ele>248</ele>
						<time>2022-04-11T07:37:13Z</time>
					</trkpt>
					<trkpt lat="43.758840" lon="4.896320">
						<ele>247</ele>
						<time>2022-04-11T07:37:19Z</time>
					</trkpt>
					<trkpt lat="43.758810" lon="4.896370">
						<ele>246</ele>
						<time>2022-04-11T07:37:26Z</time>
					</trkpt>
					<trkpt lat="43.758680" lon="4.896390">
						<ele>242</ele>
						<time>2022-04-11T07:37:43Z</time>
					</trkpt>
					<trkpt lat="43.758690" lon="4.896410">
						<ele>242</ele>
						<time>2022-04-11T07:37:45Z</time>
					</trkpt>
					<trkpt lat="43.758710" lon="4.896390">
						<ele>243</ele>
						<time>2022-04-11T07:37:49Z</time>
					</trkpt>
					<trkpt lat="43.758700" lon="4.896360">
						<ele>243</ele>
						<time>2022-04-11T07:37:52Z</time>
					</trkpt>
					<trkpt lat="43.758720" lon="4.896380">
						<ele>243</ele>
						<time>2022-04-11T07:37:55Z</time>
					</trkpt>
					<trkpt lat="43.758720" lon="4.896330">
						<ele>244</ele>
						<time>2022-04-11T07:38:00Z</time>
					</trkpt>
					<trkpt lat="43.758600" lon="4.894490">
						<ele>260</ele>
						<time>2022-04-11T07:40:58Z</time>
					</trkpt>
					<trkpt lat="43.758510" lon="4.894190">
						<ele>258</ele>
						<time>2022-04-11T07:41:29Z</time>
					</trkpt>
					<trkpt lat="43.758470" lon="4.893940">
						<ele>258</ele>
						<time>2022-04-11T07:41:54Z</time>
					</trkpt>
					<trkpt lat="43.758390" lon="4.893700">
						<ele>256</ele>
						<time>2022-04-11T07:42:20Z</time>
					</trkpt>
					<trkpt lat="43.758300" lon="4.893010">
						<ele>260</ele>
						<time>2022-04-11T07:43:27Z</time>
					</trkpt>
					<trkpt lat="43.758300" lon="4.892740">
						<ele>262</ele>
						<time>2022-04-11T07:43:53Z</time>
					</trkpt>
					<trkpt lat="43.758220" lon="4.892070">
						<ele>267</ele>
						<time>2022-04-11T07:44:59Z</time>
					</trkpt>
					<trkpt lat="43.758250" lon="4.891640">
						<ele>269</ele>
						<time>2022-04-11T07:45:40Z</time>
					</trkpt>
					<trkpt lat="43.758310" lon="4.891500">
						<ele>269</ele>
						<time>2022-04-11T07:45:56Z</time>
					</trkpt>
					<trkpt lat="43.758350" lon="4.891280">
						<ele>271</ele>
						<time>2022-04-11T07:46:18Z</time>
					</trkpt>
					<trkpt lat="43.758430" lon="4.891140">
						<ele>274</ele>
						<time>2022-04-11T07:46:35Z</time>
					</trkpt>
					<trkpt lat="43.758550" lon="4.891020">
						<ele>279</ele>
						<time>2022-04-11T07:46:55Z</time>
					</trkpt>
					<trkpt lat="43.758570" lon="4.890910">
						<ele>280</ele>
						<time>2022-04-11T07:47:06Z</time>
					</trkpt>
					<trkpt lat="43.758470" lon="4.890400">
						<ele>282</ele>
						<time>2022-04-11T07:47:57Z</time>
					</trkpt>
					<trkpt lat="43.758530" lon="4.890100">
						<ele>287</ele>
						<time>2022-04-11T07:48:27Z</time>
					</trkpt>
					<trkpt lat="43.758430" lon="4.890080">
						<ele>285</ele>
						<time>2022-04-11T07:48:40Z</time>
					</trkpt>
					<trkpt lat="43.758300" lon="4.890120">
						<ele>281</ele>
						<time>2022-04-11T07:48:58Z</time>
					</trkpt>
					<trkpt lat="43.758220" lon="4.890090">
						<ele>282</ele>
						<time>2022-04-11T07:49:09Z</time>
					</trkpt>
					<trkpt lat="43.758230" lon="4.890060">
						<ele>282</ele>
						<time>2022-04-11T07:49:12Z</time>
					</trkpt>
					<trkpt lat="43.758220" lon="4.890090">
						<ele>282</ele>
						<time>2022-04-11T07:49:15Z</time>
					</trkpt>
					<trkpt lat="43.758230" lon="4.890060">
						<ele>282</ele>
						<time>2022-04-11T07:49:19Z</time>
					</trkpt>
					<trkpt lat="43.758190" lon="4.890090">
						<ele>281</ele>
						<time>2022-04-11T07:49:25Z</time>
					</trkpt>
					<trkpt lat="43.758110" lon="4.889950">
						<ele>282</ele>
						<time>2022-04-11T07:49:42Z</time>
					</trkpt>
					<trkpt lat="43.758020" lon="4.889850">
						<ele>282</ele>
						<time>2022-04-11T07:49:57Z</time>
					</trkpt>
					<trkpt lat="43.757970" lon="4.889850">
						<ele>282</ele>
						<time>2022-04-11T07:50:04Z</time>
					</trkpt>
					<trkpt lat="43.757990" lon="4.889850">
						<ele>282</ele>
						<time>2022-04-11T07:50:07Z</time>
					</trkpt>
					<trkpt lat="43.757880" lon="4.889700">
						<ele>281</ele>
						<time>2022-04-11T07:50:27Z</time>
					</trkpt>
					<trkpt lat="43.757840" lon="4.889680">
						<ele>281</ele>
						<time>2022-04-11T07:50:33Z</time>
					</trkpt>
					<trkpt lat="43.757730" lon="4.889710">
						<ele>280</ele>
						<time>2022-04-11T07:50:48Z</time>
					</trkpt>
					<trkpt lat="43.757830" lon="4.889680">
						<ele>281</ele>
						<time>2022-04-11T07:51:01Z</time>
					</trkpt>
					<trkpt lat="43.757940" lon="4.888970">
						<ele>283</ele>
						<time>2022-04-11T07:52:11Z</time>
					</trkpt>
					<trkpt lat="43.757910" lon="4.888430">
						<ele>280</ele>
						<time>2022-04-11T07:53:04Z</time>
					</trkpt>
					<trkpt lat="43.757940" lon="4.888180">
						<ele>280</ele>
						<time>2022-04-11T07:53:28Z</time>
					</trkpt>
					<trkpt lat="43.758000" lon="4.887950">
						<ele>281</ele>
						<time>2022-04-11T07:53:52Z</time>
					</trkpt>
					<trkpt lat="43.758080" lon="4.886420">
						<ele>283</ele>
						<time>2022-04-11T07:56:19Z</time>
					</trkpt>
					<trkpt lat="43.758080" lon="4.885400">
						<ele>287</ele>
						<time>2022-04-11T07:57:58Z</time>
					</trkpt>
					<trkpt lat="43.758120" lon="4.884930">
						<ele>290</ele>
						<time>2022-04-11T07:58:43Z</time>
					</trkpt>
					<trkpt lat="43.758090" lon="4.884660">
						<ele>292</ele>
						<time>2022-04-11T07:59:10Z</time>
					</trkpt>
					<trkpt lat="43.758000" lon="4.884500">
						<ele>292</ele>
						<time>2022-04-11T07:59:29Z</time>
					</trkpt>
					<trkpt lat="43.757910" lon="4.884400">
						<ele>293</ele>
						<time>2022-04-11T07:59:45Z</time>
					</trkpt>
					<trkpt lat="43.757840" lon="4.884230">
						<ele>294</ele>
						<time>2022-04-11T08:00:04Z</time>
					</trkpt>
					<trkpt lat="43.757850" lon="4.883850">
						<ele>298</ele>
						<time>2022-04-11T08:00:40Z</time>
					</trkpt>
					<trkpt lat="43.757820" lon="4.883710">
						<ele>299</ele>
						<time>2022-04-11T08:00:54Z</time>
					</trkpt>
					<trkpt lat="43.757720" lon="4.883470">
						<ele>302</ele>
						<time>2022-04-11T08:01:21Z</time>
					</trkpt>
					<trkpt lat="43.757630" lon="4.883070">
						<ele>305</ele>
						<time>2022-04-11T08:02:01Z</time>
					</trkpt>
					<trkpt lat="43.757590" lon="4.882710">
						<ele>307</ele>
						<time>2022-04-11T08:02:36Z</time>
					</trkpt>
					<trkpt lat="43.757530" lon="4.882590">
						<ele>308</ele>
						<time>2022-04-11T08:02:51Z</time>
					</trkpt>
					<trkpt lat="43.757560" lon="4.882440">
						<ele>308</ele>
						<time>2022-04-11T08:03:06Z</time>
					</trkpt>
					<trkpt lat="43.757540" lon="4.882280">
						<ele>307</ele>
						<time>2022-04-11T08:03:21Z</time>
					</trkpt>
					<trkpt lat="43.757580" lon="4.881660">
						<ele>303</ele>
						<time>2022-04-11T08:04:21Z</time>
					</trkpt>
					<trkpt lat="43.757520" lon="4.880570">
						<ele>289</ele>
						<time>2022-04-11T08:06:07Z</time>
					</trkpt>
					<trkpt lat="43.757600" lon="4.878930">
						<ele>272</ele>
						<time>2022-04-11T08:08:45Z</time>
					</trkpt>
					<trkpt lat="43.757490" lon="4.877680">
						<ele>263</ele>
						<time>2022-04-11T08:10:46Z</time>
					</trkpt>
					<trkpt lat="43.757520" lon="4.877410">
						<ele>262</ele>
						<time>2022-04-11T08:11:13Z</time>
					</trkpt>
					<trkpt lat="43.757520" lon="4.876400">
						<ele>259</ele>
						<time>2022-04-11T08:12:50Z</time>
					</trkpt>
					<trkpt lat="43.757680" lon="4.875020">
						<ele>260</ele>
						<time>2022-04-11T08:15:05Z</time>
					</trkpt>
					<trkpt lat="43.757760" lon="4.874930">
						<ele>261</ele>
						<time>2022-04-11T08:15:18Z</time>
					</trkpt>
					<trkpt lat="43.757850" lon="4.875050">
						<ele>262</ele>
						<time>2022-04-11T08:15:35Z</time>
					</trkpt>
					<trkpt lat="43.758000" lon="4.875080">
						<ele>264</ele>
						<time>2022-04-11T08:15:55Z</time>
					</trkpt>
					<trkpt lat="43.758090" lon="4.875150">
						<ele>265</ele>
						<time>2022-04-11T08:16:09Z</time>
					</trkpt>
					<trkpt lat="43.758330" lon="4.875100">
						<ele>268</ele>
						<time>2022-04-11T08:16:42Z</time>
					</trkpt>
					<trkpt lat="43.758440" lon="4.875020">
						<ele>271</ele>
						<time>2022-04-11T08:16:58Z</time>
					</trkpt>
					<trkpt lat="43.758550" lon="4.875050">
						<ele>274</ele>
						<time>2022-04-11T08:17:13Z</time>
					</trkpt>
					<trkpt lat="43.758750" lon="4.875000">
						<ele>280</ele>
						<time>2022-04-11T08:17:40Z</time>
					</trkpt>
					<trkpt lat="43.758820" lon="4.874930">
						<ele>283</ele>
						<time>2022-04-11T08:17:52Z</time>
					</trkpt>
					<trkpt lat="43.759020" lon="4.874820">
						<ele>290</ele>
						<time>2022-04-11T08:18:20Z</time>
					</trkpt>
					<trkpt lat="43.759200" lon="4.874890">
						<ele>295</ele>
						<time>2022-04-11T08:18:45Z</time>
					</trkpt>
					<trkpt lat="43.759280" lon="4.874950">
						<ele>296</ele>
						<time>2022-04-11T08:18:58Z</time>
					</trkpt>
					<trkpt lat="43.759450" lon="4.874990">
						<ele>299</ele>
						<time>2022-04-11T08:19:21Z</time>
					</trkpt>
					<trkpt lat="43.759550" lon="4.874980">
						<ele>302</ele>
						<time>2022-04-11T08:19:34Z</time>
					</trkpt>
					<trkpt lat="43.759750" lon="4.874890">
						<ele>307</ele>
						<time>2022-04-11T08:20:02Z</time>
					</trkpt>
					<trkpt lat="43.759800" lon="4.874800">
						<ele>309</ele>
						<time>2022-04-11T08:20:13Z</time>
					</trkpt>
					<trkpt lat="43.759800" lon="4.874750">
						<ele>310</ele>
						<time>2022-04-11T08:20:18Z</time>
					</trkpt>
					<trkpt lat="43.759890" lon="4.874620">
						<ele>314</ele>
						<time>2022-04-11T08:20:35Z</time>
					</trkpt>
					<trkpt lat="43.760150" lon="4.874710">
						<ele>309</ele>
						<time>2022-04-11T08:21:11Z</time>
					</trkpt>
					<trkpt lat="43.760200" lon="4.874680">
						<ele>308</ele>
						<time>2022-04-11T08:21:18Z</time>
					</trkpt>
					<trkpt lat="43.760220" lon="4.874610">
						<ele>308</ele>
						<time>2022-04-11T08:21:25Z</time>
					</trkpt>
					<trkpt lat="43.760200" lon="4.874700">
						<ele>307</ele>
						<time>2022-04-11T08:21:34Z</time>
					</trkpt>
					<trkpt lat="43.760160" lon="4.874740">
						<ele>308</ele>
						<time>2022-04-11T08:21:41Z</time>
					</trkpt>
					<trkpt lat="43.760150" lon="4.874830">
						<ele>307</ele>
						<time>2022-04-11T08:21:50Z</time>
					</trkpt>
					<trkpt lat="43.760180" lon="4.874950">
						<ele>304</ele>
						<time>2022-04-11T08:22:02Z</time>
					</trkpt>
					<trkpt lat="43.760140" lon="4.875170">
						<ele>306</ele>
						<time>2022-04-11T08:22:24Z</time>
					</trkpt>
					<trkpt lat="43.760140" lon="4.875340">
						<ele>308</ele>
						<time>2022-04-11T08:22:40Z</time>
					</trkpt>
					<trkpt lat="43.759990" lon="4.875950">
						<ele>322</ele>
						<time>2022-04-11T08:23:42Z</time>
					</trkpt>
					<trkpt lat="43.760000" lon="4.875990">
						<ele>323</ele>
						<time>2022-04-11T08:23:47Z</time>
					</trkpt>
					<trkpt lat="43.759930" lon="4.876130">
						<ele>324</ele>
						<time>2022-04-11T08:24:03Z</time>
					</trkpt>
					<trkpt lat="43.759950" lon="4.876160">
						<ele>325</ele>
						<time>2022-04-11T08:24:07Z</time>
					</trkpt>
					<trkpt lat="43.759860" lon="4.876360">
						<ele>327</ele>
						<time>2022-04-11T08:24:30Z</time>
					</trkpt>
					<trkpt lat="43.759820" lon="4.876570">
						<ele>330</ele>
						<time>2022-04-11T08:24:50Z</time>
					</trkpt>
					<trkpt lat="43.759890" lon="4.876680">
						<ele>331</ele>
						<time>2022-04-11T08:25:05Z</time>
					</trkpt>
					<trkpt lat="43.759830" lon="4.876650">
						<ele>331</ele>
						<time>2022-04-11T08:25:13Z</time>
					</trkpt>
					<trkpt lat="43.759750" lon="4.876740">
						<ele>331</ele>
						<time>2022-04-11T08:25:27Z</time>
					</trkpt>
					<trkpt lat="43.759730" lon="4.876920">
						<ele>330</ele>
						<time>2022-04-11T08:25:44Z</time>
					</trkpt>
					<trkpt lat="43.759670" lon="4.876990">
						<ele>329</ele>
						<time>2022-04-11T08:25:55Z</time>
					</trkpt>
					<trkpt lat="43.759640" lon="4.877080">
						<ele>329</ele>
						<time>2022-04-11T08:26:04Z</time>
					</trkpt>
					<trkpt lat="43.759630" lon="4.877450">
						<ele>328</ele>
						<time>2022-04-11T08:26:40Z</time>
					</trkpt>
					<trkpt lat="43.759590" lon="4.877610">
						<ele>328</ele>
						<time>2022-04-11T08:26:56Z</time>
					</trkpt>
					<trkpt lat="43.759610" lon="4.877620">
						<ele>328</ele>
						<time>2022-04-11T08:26:59Z</time>
					</trkpt>
					<trkpt lat="43.759620" lon="4.877730">
						<ele>328</ele>
						<time>2022-04-11T08:27:10Z</time>
					</trkpt>
					<trkpt lat="43.759570" lon="4.877800">
						<ele>328</ele>
						<time>2022-04-11T08:27:19Z</time>
					</trkpt>
					<trkpt lat="43.759560" lon="4.877780">
						<ele>328</ele>
						<time>2022-04-11T08:27:22Z</time>
					</trkpt>
					<trkpt lat="43.759600" lon="4.878030">
						<ele>329</ele>
						<time>2022-04-11T08:27:47Z</time>
					</trkpt>
					<trkpt lat="43.759670" lon="4.878130">
						<ele>329</ele>
						<time>2022-04-11T08:28:00Z</time>
					</trkpt>
					<trkpt lat="43.759770" lon="4.878470">
						<ele>329</ele>
						<time>2022-04-11T08:28:35Z</time>
					</trkpt>
					<trkpt lat="43.759770" lon="4.878730">
						<ele>328</ele>
						<time>2022-04-11T08:29:00Z</time>
					</trkpt>
					<trkpt lat="43.759740" lon="4.878650">
						<ele>328</ele>
						<time>2022-04-11T08:29:09Z</time>
					</trkpt>
					<trkpt lat="43.759700" lon="4.878640">
						<ele>328</ele>
						<time>2022-04-11T08:29:14Z</time>
					</trkpt>
					<trkpt lat="43.759650" lon="4.878670">
						<ele>328</ele>
						<time>2022-04-11T08:29:22Z</time>
					</trkpt>
					<trkpt lat="43.759670" lon="4.878650">
						<ele>328</ele>
						<time>2022-04-11T08:29:25Z</time>
					</trkpt>
					<trkpt lat="43.759650" lon="4.878650">
						<ele>328</ele>
						<time>2022-04-11T08:29:28Z</time>
					</trkpt>
					<trkpt lat="43.759650" lon="4.878670">
						<ele>328</ele>
						<time>2022-04-11T08:29:30Z</time>
					</trkpt>
					<trkpt lat="43.759660" lon="4.878650">
						<ele>328</ele>
						<time>2022-04-11T08:29:32Z</time>
					</trkpt>
					<trkpt lat="43.759650" lon="4.878670">
						<ele>328</ele>
						<time>2022-04-11T08:29:34Z</time>
					</trkpt>
					<trkpt lat="43.759690" lon="4.878670">
						<ele>328</ele>
						<time>2022-04-11T08:29:40Z</time>
					</trkpt>
					<trkpt lat="43.759670" lon="4.878650">
						<ele>328</ele>
						<time>2022-04-11T08:29:43Z</time>
					</trkpt>
					<trkpt lat="43.759620" lon="4.878660">
						<ele>328</ele>
						<time>2022-04-11T08:29:50Z</time>
					</trkpt>
					<trkpt lat="43.759590" lon="4.878800">
						<ele>327</ele>
						<time>2022-04-11T08:30:04Z</time>
					</trkpt>
					<trkpt lat="43.759610" lon="4.879050">
						<ele>326</ele>
						<time>2022-04-11T08:30:28Z</time>
					</trkpt>
					<trkpt lat="43.759560" lon="4.879280">
						<ele>326</ele>
						<time>2022-04-11T08:30:51Z</time>
					</trkpt>
					<trkpt lat="43.759480" lon="4.879320">
						<ele>326</ele>
						<time>2022-04-11T08:31:03Z</time>
					</trkpt>
					<trkpt lat="43.759490" lon="4.879460">
						<ele>326</ele>
						<time>2022-04-11T08:31:16Z</time>
					</trkpt>
					<trkpt lat="43.759420" lon="4.879760">
						<ele>327</ele>
						<time>2022-04-11T08:31:46Z</time>
					</trkpt>
					<trkpt lat="43.759440" lon="4.880180">
						<ele>328</ele>
						<time>2022-04-11T08:32:27Z</time>
					</trkpt>
					<trkpt lat="43.759480" lon="4.880410">
						<ele>329</ele>
						<time>2022-04-11T08:32:50Z</time>
					</trkpt>
					<trkpt lat="43.759550" lon="4.880580">
						<ele>329</ele>
						<time>2022-04-11T08:33:09Z</time>
					</trkpt>
					<trkpt lat="43.759560" lon="4.881230">
						<ele>333</ele>
						<time>2022-04-11T08:34:11Z</time>
					</trkpt>
					<trkpt lat="43.759590" lon="4.881410">
						<ele>334</ele>
						<time>2022-04-11T08:34:29Z</time>
					</trkpt>
					<trkpt lat="43.759630" lon="4.881560">
						<ele>334</ele>
						<time>2022-04-11T08:34:45Z</time>
					</trkpt>
					<trkpt lat="43.759730" lon="4.881780">
						<ele>333</ele>
						<time>2022-04-11T08:35:10Z</time>
					</trkpt>
					<trkpt lat="43.759760" lon="4.881910">
						<ele>333</ele>
						<time>2022-04-11T08:35:23Z</time>
					</trkpt>
					<trkpt lat="43.759750" lon="4.881990">
						<ele>333</ele>
						<time>2022-04-11T08:35:31Z</time>
					</trkpt>
					<trkpt lat="43.759820" lon="4.882120">
						<ele>333</ele>
						<time>2022-04-11T08:35:46Z</time>
					</trkpt>
					<trkpt lat="43.759880" lon="4.882410">
						<ele>334</ele>
						<time>2022-04-11T08:36:15Z</time>
					</trkpt>
					<trkpt lat="43.759800" lon="4.882380">
						<ele>334</ele>
						<time>2022-04-11T08:36:26Z</time>
					</trkpt>
					<trkpt lat="43.759760" lon="4.882430">
						<ele>334</ele>
						<time>2022-04-11T08:36:34Z</time>
					</trkpt>
					<trkpt lat="43.759720" lon="4.882420">
						<ele>334</ele>
						<time>2022-04-11T08:36:39Z</time>
					</trkpt>
					<trkpt lat="43.759700" lon="4.882510">
						<ele>333</ele>
						<time>2022-04-11T08:36:48Z</time>
					</trkpt>
					<trkpt lat="43.759650" lon="4.882460">
						<ele>333</ele>
						<time>2022-04-11T08:36:56Z</time>
					</trkpt>
					<trkpt lat="43.759600" lon="4.882450">
						<ele>333</ele>
						<time>2022-04-11T08:37:03Z</time>
					</trkpt>
					<trkpt lat="43.759580" lon="4.882470">
						<ele>333</ele>
						<time>2022-04-11T08:37:06Z</time>
					</trkpt>
					<trkpt lat="43.759620" lon="4.882460">
						<ele>333</ele>
						<time>2022-04-11T08:37:12Z</time>
					</trkpt>
					<trkpt lat="43.759470" lon="4.882440">
						<ele>333</ele>
						<time>2022-04-11T08:37:32Z</time>
					</trkpt>
					<trkpt lat="43.759430" lon="4.882410">
						<ele>333</ele>
						<time>2022-04-11T08:37:38Z</time>
					</trkpt>
					<trkpt lat="43.759340" lon="4.882420">
						<ele>333</ele>
						<time>2022-04-11T08:37:50Z</time>
					</trkpt>
					<trkpt lat="43.759200" lon="4.882550">
						<ele>331</ele>
						<time>2022-04-11T08:38:12Z</time>
					</trkpt>
					<trkpt lat="43.758970" lon="4.882580">
						<ele>326</ele>
						<time>2022-04-11T08:38:43Z</time>
					</trkpt>
					<trkpt lat="43.758840" lon="4.882440">
						<ele>325</ele>
						<time>2022-04-11T08:39:05Z</time>
					</trkpt>
					<trkpt lat="43.758780" lon="4.882300">
						<ele>325</ele>
						<time>2022-04-11T08:39:21Z</time>
					</trkpt>
					<trkpt lat="43.758670" lon="4.882190">
						<ele>323</ele>
						<time>2022-04-11T08:39:39Z</time>
					</trkpt>
					<trkpt lat="43.758560" lon="4.882240">
						<ele>320</ele>
						<time>2022-04-11T08:39:55Z</time>
					</trkpt>
					<trkpt lat="43.758550" lon="4.882350">
						<ele>319</ele>
						<time>2022-04-11T08:40:05Z</time>
					</trkpt>
					<trkpt lat="43.758600" lon="4.882510">
						<ele>319</ele>
						<time>2022-04-11T08:40:22Z</time>
					</trkpt>
					<trkpt lat="43.758770" lon="4.882820">
						<ele>319</ele>
						<time>2022-04-11T08:41:00Z</time>
					</trkpt>
					<trkpt lat="43.758790" lon="4.882930">
						<ele>318</ele>
						<time>2022-04-11T08:41:10Z</time>
					</trkpt>
					<trkpt lat="43.758770" lon="4.883020">
						<ele>317</ele>
						<time>2022-04-11T08:41:20Z</time>
					</trkpt>
					<trkpt lat="43.758800" lon="4.883130">
						<ele>316</ele>
						<time>2022-04-11T08:41:31Z</time>
					</trkpt>
					<trkpt lat="43.758780" lon="4.883300">
						<ele>314</ele>
						<time>2022-04-11T08:41:47Z</time>
					</trkpt>
					<trkpt lat="43.758750" lon="4.883250">
						<ele>314</ele>
						<time>2022-04-11T08:41:54Z</time>
					</trkpt>
					<trkpt lat="43.758730" lon="4.883500">
						<ele>312</ele>
						<time>2022-04-11T08:42:18Z</time>
					</trkpt>
					<trkpt lat="43.758760" lon="4.883770">
						<ele>311</ele>
						<time>2022-04-11T08:42:44Z</time>
					</trkpt>
					<trkpt lat="43.758710" lon="4.884050">
						<ele>308</ele>
						<time>2022-04-11T08:43:12Z</time>
					</trkpt>
					<trkpt lat="43.758670" lon="4.884140">
						<ele>306</ele>
						<time>2022-04-11T08:43:22Z</time>
					</trkpt>
					<trkpt lat="43.758680" lon="4.884400">
						<ele>305</ele>
						<time>2022-04-11T08:43:47Z</time>
					</trkpt>
					<trkpt lat="43.758660" lon="4.884540">
						<ele>304</ele>
						<time>2022-04-11T08:44:01Z</time>
					</trkpt>
					<trkpt lat="43.758720" lon="4.884700">
						<ele>305</ele>
						<time>2022-04-11T08:44:19Z</time>
					</trkpt>
					<trkpt lat="43.758750" lon="4.885050">
						<ele>305</ele>
						<time>2022-04-11T08:44:52Z</time>
					</trkpt>
					<trkpt lat="43.758790" lon="4.885170">
						<ele>306</ele>
						<time>2022-04-11T08:45:05Z</time>
					</trkpt>
					<trkpt lat="43.758750" lon="4.885270">
						<ele>304</ele>
						<time>2022-04-11T08:45:16Z</time>
					</trkpt>
					<trkpt lat="43.758740" lon="4.885500">
						<ele>302</ele>
						<time>2022-04-11T08:45:38Z</time>
					</trkpt>
					<trkpt lat="43.758810" lon="4.885640">
						<ele>304</ele>
						<time>2022-04-11T08:45:55Z</time>
					</trkpt>
					<trkpt lat="43.758790" lon="4.885740">
						<ele>302</ele>
						<time>2022-04-11T08:46:05Z</time>
					</trkpt>
					<trkpt lat="43.758830" lon="4.885790">
						<ele>304</ele>
						<time>2022-04-11T08:46:12Z</time>
					</trkpt>
					<trkpt lat="43.758820" lon="4.885770">
						<ele>303</ele>
						<time>2022-04-11T08:46:14Z</time>
					</trkpt>
					<trkpt lat="43.758800" lon="4.885860">
						<ele>302</ele>
						<time>2022-04-11T08:46:23Z</time>
					</trkpt>
					<trkpt lat="43.758820" lon="4.886050">
						<ele>303</ele>
						<time>2022-04-11T08:46:42Z</time>
					</trkpt>
					<trkpt lat="43.758760" lon="4.886400">
						<ele>300</ele>
						<time>2022-04-11T08:47:17Z</time>
					</trkpt>
					<trkpt lat="43.758770" lon="4.886620">
						<ele>300</ele>
						<time>2022-04-11T08:47:38Z</time>
					</trkpt>
					<trkpt lat="43.758850" lon="4.886880">
						<ele>304</ele>
						<time>2022-04-11T08:48:05Z</time>
					</trkpt>
					<trkpt lat="43.758910" lon="4.886940">
						<ele>306</ele>
						<time>2022-04-11T08:48:15Z</time>
					</trkpt>
					<trkpt lat="43.758840" lon="4.887270">
						<ele>304</ele>
						<time>2022-04-11T08:48:48Z</time>
					</trkpt>
					<trkpt lat="43.758900" lon="4.887470">
						<ele>307</ele>
						<time>2022-04-11T08:49:09Z</time>
					</trkpt>
					<trkpt lat="43.758880" lon="4.887570">
						<ele>306</ele>
						<time>2022-04-11T08:49:19Z</time>
					</trkpt>
					<trkpt lat="43.758960" lon="4.887650">
						<ele>310</ele>
						<time>2022-04-11T08:49:32Z</time>
					</trkpt>
					<trkpt lat="43.758990" lon="4.887750">
						<ele>311</ele>
						<time>2022-04-11T08:49:43Z</time>
					</trkpt>
					<trkpt lat="43.758970" lon="4.888140">
						<ele>310</ele>
						<time>2022-04-11T08:50:20Z</time>
					</trkpt>
					<trkpt lat="43.759030" lon="4.888400">
						<ele>313</ele>
						<time>2022-04-11T08:50:47Z</time>
					</trkpt>
					<trkpt lat="43.759010" lon="4.888650">
						<ele>312</ele>
						<time>2022-04-11T08:51:11Z</time>
					</trkpt>
					<trkpt lat="43.758990" lon="4.888640">
						<ele>312</ele>
						<time>2022-04-11T08:51:14Z</time>
					</trkpt>
					<trkpt lat="43.758970" lon="4.888680">
						<ele>311</ele>
						<time>2022-04-11T08:51:18Z</time>
					</trkpt>
					<trkpt lat="43.759000" lon="4.888840">
						<ele>312</ele>
						<time>2022-04-11T08:51:34Z</time>
					</trkpt>
					<trkpt lat="43.758990" lon="4.888960">
						<ele>312</ele>
						<time>2022-04-11T08:51:46Z</time>
					</trkpt>
					<trkpt lat="43.759190" lon="4.889470">
						<ele>314</ele>
						<time>2022-04-11T08:52:42Z</time>
					</trkpt>
					<trkpt lat="43.759150" lon="4.889770">
						<ele>310</ele>
						<time>2022-04-11T08:53:11Z</time>
					</trkpt>
					<trkpt lat="43.759220" lon="4.889870">
						<ele>309</ele>
						<time>2022-04-11T08:53:25Z</time>
					</trkpt>
					<trkpt lat="43.759210" lon="4.889990">
						<ele>307</ele>
						<time>2022-04-11T08:53:36Z</time>
					</trkpt>
					<trkpt lat="43.759240" lon="4.890040">
						<ele>306</ele>
						<time>2022-04-11T08:53:43Z</time>
					</trkpt>
					<trkpt lat="43.759210" lon="4.890120">
						<ele>306</ele>
						<time>2022-04-11T08:53:51Z</time>
					</trkpt>
					<trkpt lat="43.759230" lon="4.890170">
						<ele>305</ele>
						<time>2022-04-11T08:53:57Z</time>
					</trkpt>
					<trkpt lat="43.759220" lon="4.890300">
						<ele>304</ele>
						<time>2022-04-11T08:54:09Z</time>
					</trkpt>
					<trkpt lat="43.759280" lon="4.890500">
						<ele>301</ele>
						<time>2022-04-11T08:54:30Z</time>
					</trkpt>
					<trkpt lat="43.759280" lon="4.890580">
						<ele>300</ele>
						<time>2022-04-11T08:54:38Z</time>
					</trkpt>
					<trkpt lat="43.759240" lon="4.890660">
						<ele>300</ele>
						<time>2022-04-11T08:54:47Z</time>
					</trkpt>
					<trkpt lat="43.759270" lon="4.890760">
						<ele>298</ele>
						<time>2022-04-11T08:54:58Z</time>
					</trkpt>
					<trkpt lat="43.759210" lon="4.890880">
						<ele>298</ele>
						<time>2022-04-11T08:55:12Z</time>
					</trkpt>
					<trkpt lat="43.759170" lon="4.890870">
						<ele>298</ele>
						<time>2022-04-11T08:55:17Z</time>
					</trkpt>
					<trkpt lat="43.759010" lon="4.891460">
						<ele>293</ele>
						<time>2022-04-11T08:56:18Z</time>
					</trkpt>
					<trkpt lat="43.758970" lon="4.891520">
						<ele>292</ele>
						<time>2022-04-11T08:56:26Z</time>
					</trkpt>
					<trkpt lat="43.758820" lon="4.891950">
						<ele>285</ele>
						<time>2022-04-11T08:57:12Z</time>
					</trkpt>
					<trkpt lat="43.758860" lon="4.892450">
						<ele>286</ele>
						<time>2022-04-11T08:58:00Z</time>
					</trkpt>
					<trkpt lat="43.758900" lon="4.892580">
						<ele>287</ele>
						<time>2022-04-11T08:58:14Z</time>
					</trkpt>
					<trkpt lat="43.758920" lon="4.893020">
						<ele>287</ele>
						<time>2022-04-11T08:58:57Z</time>
					</trkpt>
					<trkpt lat="43.758990" lon="4.893280">
						<ele>290</ele>
						<time>2022-04-11T08:59:23Z</time>
					</trkpt>
					<trkpt lat="43.759020" lon="4.893320">
						<ele>292</ele>
						<time>2022-04-11T08:59:29Z</time>
					</trkpt>
					<trkpt lat="43.759030" lon="4.893710">
						<ele>288</ele>
						<time>2022-04-11T09:00:06Z</time>
					</trkpt>
					<trkpt lat="43.759180" lon="4.894160">
						<ele>291</ele>
						<time>2022-04-11T09:00:54Z</time>
					</trkpt>
					<trkpt lat="43.759210" lon="4.894340">
						<ele>289</ele>
						<time>2022-04-11T09:01:12Z</time>
					</trkpt>
					<trkpt lat="43.759170" lon="4.894580">
						<ele>285</ele>
						<time>2022-04-11T09:01:36Z</time>
					</trkpt>
					<trkpt lat="43.759110" lon="4.894680">
						<ele>281</ele>
						<time>2022-04-11T09:01:48Z</time>
					</trkpt>
					<trkpt lat="43.759120" lon="4.894780">
						<ele>279</ele>
						<time>2022-04-11T09:01:58Z</time>
					</trkpt>
					<trkpt lat="43.759300" lon="4.895110">
						<ele>280</ele>
						<time>2022-04-11T09:02:38Z</time>
					</trkpt>
					<trkpt lat="43.759340" lon="4.895420">
						<ele>275</ele>
						<time>2022-04-11T09:03:08Z</time>
					</trkpt>
					<trkpt lat="43.759320" lon="4.895520">
						<ele>273</ele>
						<time>2022-04-11T09:03:18Z</time>
					</trkpt>
					<trkpt lat="43.759420" lon="4.895750">
						<ele>272</ele>
						<time>2022-04-11T09:03:44Z</time>
					</trkpt>
					<trkpt lat="43.759430" lon="4.896040">
						<ele>266</ele>
						<time>2022-04-11T09:04:12Z</time>
					</trkpt>
					<trkpt lat="43.759480" lon="4.896180">
						<ele>264</ele>
						<time>2022-04-11T09:04:27Z</time>
					</trkpt>
					<trkpt lat="43.759480" lon="4.896250">
						<ele>262</ele>
						<time>2022-04-11T09:04:34Z</time>
					</trkpt>
					<trkpt lat="43.759440" lon="4.896260">
						<ele>261</ele>
						<time>2022-04-11T09:04:39Z</time>
					</trkpt>
					<trkpt lat="43.759440" lon="4.896230">
						<ele>262</ele>
						<time>2022-04-11T09:04:42Z</time>
					</trkpt>
					<trkpt lat="43.759480" lon="4.896290">
						<ele>262</ele>
						<time>2022-04-11T09:04:50Z</time>
					</trkpt>
					<trkpt lat="43.759450" lon="4.896240">
						<ele>262</ele>
						<time>2022-04-11T09:04:56Z</time>
					</trkpt>
					<trkpt lat="43.759530" lon="4.896290">
						<ele>263</ele>
						<time>2022-04-11T09:05:08Z</time>
					</trkpt>
					<trkpt lat="43.759480" lon="4.896270">
						<ele>262</ele>
						<time>2022-04-11T09:05:15Z</time>
					</trkpt>
					<trkpt lat="43.759510" lon="4.896240">
						<ele>263</ele>
						<time>2022-04-11T09:05:20Z</time>
					</trkpt>
					<trkpt lat="43.759490" lon="4.896280">
						<ele>262</ele>
						<time>2022-04-11T09:05:25Z</time>
					</trkpt>
					<trkpt lat="43.759490" lon="4.896230">
						<ele>263</ele>
						<time>2022-04-11T09:05:29Z</time>
					</trkpt>
					<trkpt lat="43.759500" lon="4.896270">
						<ele>262</ele>
						<time>2022-04-11T09:05:34Z</time>
					</trkpt>
					<trkpt lat="43.759480" lon="4.896280">
						<ele>262</ele>
						<time>2022-04-11T09:05:36Z</time>
					</trkpt>
					<trkpt lat="43.759540" lon="4.896360">
						<ele>261</ele>
						<time>2022-04-11T09:05:47Z</time>
					</trkpt>
					<trkpt lat="43.759530" lon="4.896390">
						<ele>260</ele>
						<time>2022-04-11T09:05:51Z</time>
					</trkpt>
					<trkpt lat="43.759590" lon="4.896530">
						<ele>258</ele>
						<time>2022-04-11T09:06:06Z</time>
					</trkpt>
					<trkpt lat="43.759620" lon="4.896710">
						<ele>255</ele>
						<time>2022-04-11T09:06:24Z</time>
					</trkpt>
					<trkpt lat="43.759700" lon="4.896780">
						<ele>256</ele>
						<time>2022-04-11T09:06:37Z</time>
					</trkpt>
					<trkpt lat="43.759830" lon="4.896770">
						<ele>258</ele>
						<time>2022-04-11T09:06:54Z</time>
					</trkpt>
					<trkpt lat="43.759890" lon="4.896740">
						<ele>260</ele>
						<time>2022-04-11T09:07:03Z</time>
					</trkpt>
					<trkpt lat="43.760030" lon="4.896840">
						<ele>260</ele>
						<time>2022-04-11T09:07:24Z</time>
					</trkpt>
					<trkpt lat="43.760200" lon="4.896900">
						<ele>254</ele>
						<time>2022-04-11T09:07:47Z</time>
					</trkpt>
					<trkpt lat="43.760380" lon="4.896870">
						<ele>247</ele>
						<time>2022-04-11T09:08:11Z</time>
					</trkpt>
					<trkpt lat="43.760560" lon="4.896900">
						<ele>241</ele>
						<time>2022-04-11T09:08:36Z</time>
					</trkpt>
					<trkpt lat="43.760650" lon="4.896950">
						<ele>237</ele>
						<time>2022-04-11T09:08:48Z</time>
					</trkpt>
					<trkpt lat="43.760670" lon="4.897020">
						<ele>236</ele>
						<time>2022-04-11T09:08:56Z</time>
					</trkpt>
					<trkpt lat="43.760730" lon="4.897000">
						<ele>234</ele>
						<time>2022-04-11T09:09:04Z</time>
					</trkpt>
					<trkpt lat="43.760790" lon="4.896920">
						<ele>233</ele>
						<time>2022-04-11T09:09:15Z</time>
					</trkpt>
					<trkpt lat="43.760850" lon="4.896920">
						<ele>230</ele>
						<time>2022-04-11T09:09:23Z</time>
					</trkpt>
					<trkpt lat="43.760920" lon="4.896870">
						<ele>227</ele>
						<time>2022-04-11T09:09:34Z</time>
					</trkpt>
					<trkpt lat="43.760950" lon="4.896860">
						<ele>226</ele>
						<time>2022-04-11T09:09:38Z</time>
					</trkpt>
					<trkpt lat="43.760990" lon="4.896900">
						<ele>224</ele>
						<time>2022-04-11T09:09:44Z</time>
					</trkpt>
					<trkpt lat="43.760990" lon="4.896790">
						<ele>224</ele>
						<time>2022-04-11T09:09:55Z</time>
					</trkpt>
					<trkpt lat="43.761050" lon="4.896800">
						<ele>221</ele>
						<time>2022-04-11T09:10:03Z</time>
					</trkpt>
					<trkpt lat="43.761040" lon="4.896910">
						<ele>221</ele>
						<time>2022-04-11T09:10:14Z</time>
					</trkpt>
					<trkpt lat="43.760980" lon="4.897010">
						<ele>224</ele>
						<time>2022-04-11T09:10:26Z</time>
					</trkpt>
					<trkpt lat="43.761010" lon="4.897040">
						<ele>222</ele>
						<time>2022-04-11T09:10:31Z</time>
					</trkpt>
					<trkpt lat="43.760990" lon="4.897050">
						<ele>223</ele>
						<time>2022-04-11T09:10:34Z</time>
					</trkpt>
					<trkpt lat="43.761030" lon="4.897080">
						<ele>221</ele>
						<time>2022-04-11T09:10:40Z</time>
					</trkpt>
					<trkpt lat="43.761000" lon="4.897190">
						<ele>222</ele>
						<time>2022-04-11T09:10:51Z</time>
					</trkpt>
					<trkpt lat="43.761060" lon="4.897140">
						<ele>220</ele>
						<time>2022-04-11T09:11:01Z</time>
					</trkpt>
					<trkpt lat="43.761060" lon="4.897160">
						<ele>220</ele>
						<time>2022-04-11T09:11:03Z</time>
					</trkpt>
					<trkpt lat="43.761010" lon="4.897130">
						<ele>222</ele>
						<time>2022-04-11T09:11:10Z</time>
					</trkpt>
					<trkpt lat="43.761090" lon="4.897110">
						<ele>218</ele>
						<time>2022-04-11T09:11:21Z</time>
					</trkpt>
					<trkpt lat="43.761120" lon="4.897130">
						<ele>217</ele>
						<time>2022-04-11T09:11:25Z</time>
					</trkpt>
					<trkpt lat="43.761250" lon="4.897070">
						<ele>211</ele>
						<time>2022-04-11T09:11:43Z</time>
					</trkpt>
					<trkpt lat="43.761290" lon="4.897080">
						<ele>209</ele>
						<time>2022-04-11T09:11:49Z</time>
					</trkpt>
					<trkpt lat="43.761320" lon="4.897130">
						<ele>207</ele>
						<time>2022-04-11T09:11:55Z</time>
					</trkpt>
					<trkpt lat="43.761370" lon="4.897130">
						<ele>205</ele>
						<time>2022-04-11T09:12:02Z</time>
					</trkpt>
					<trkpt lat="43.761600" lon="4.897040">
						<ele>194</ele>
						<time>2022-04-11T09:12:34Z</time>
					</trkpt>
					<trkpt lat="43.761700" lon="4.897060">
						<ele>190</ele>
						<time>2022-04-11T09:12:47Z</time>
					</trkpt>
					<trkpt lat="43.761790" lon="4.897110">
						<ele>187</ele>
						<time>2022-04-11T09:13:00Z</time>
					</trkpt>
					<trkpt lat="43.761890" lon="4.897100">
						<ele>184</ele>
						<time>2022-04-11T09:13:14Z</time>
					</trkpt>
					<trkpt lat="43.761980" lon="4.897200">
						<ele>180</ele>
						<time>2022-04-11T09:13:29Z</time>
					</trkpt>
					<trkpt lat="43.762060" lon="4.897190">
						<ele>178</ele>
						<time>2022-04-11T09:13:40Z</time>
					</trkpt>
					<trkpt lat="43.762290" lon="4.897240">
						<ele>170</ele>
						<time>2022-04-11T09:14:11Z</time>
					</trkpt>
					<trkpt lat="43.762460" lon="4.897320">
						<ele>163</ele>
						<time>2022-04-11T09:14:35Z</time>
					</trkpt>
					<trkpt lat="43.762550" lon="4.897420">
						<ele>160</ele>
						<time>2022-04-11T09:14:50Z</time>
					</trkpt>
					<trkpt lat="43.762610" lon="4.897600">
						<ele>158</ele>
						<time>2022-04-11T09:15:09Z</time>
					</trkpt>
					<trkpt lat="43.762710" lon="4.897790">
						<ele>157</ele>
						<time>2022-04-11T09:15:32Z</time>
					</trkpt>
					<trkpt lat="43.762860" lon="4.897830">
						<ele>155</ele>
						<time>2022-04-11T09:15:52Z</time>
					</trkpt>
					<trkpt lat="43.763070" lon="4.897760">
						<ele>150</ele>
						<time>2022-04-11T09:16:21Z</time>
					</trkpt>
					<trkpt lat="43.763360" lon="4.897540">
						<ele>144</ele>
						<time>2022-04-11T09:17:05Z</time>
					</trkpt>
					<trkpt lat="43.763540" lon="4.897470">
						<ele>142</ele>
						<time>2022-04-11T09:17:30Z</time>
					</trkpt>
					<trkpt lat="43.763730" lon="4.897500">
						<ele>140</ele>
						<time>2022-04-11T09:17:56Z</time>
					</trkpt>
					<trkpt lat="43.764010" lon="4.897790">
						<ele>138</ele>
						<time>2022-04-11T09:18:42Z</time>
					</trkpt>
					<trkpt lat="43.763980" lon="4.897750">
						<ele>139</ele>
						<time>2022-04-11T09:18:48Z</time>
					</trkpt>
					<trkpt lat="43.764000" lon="4.897740">
						<ele>138</ele>
						<time>2022-04-11T09:18:51Z</time>
					</trkpt>
					<trkpt lat="43.763990" lon="4.897760">
						<ele>138</ele>
						<time>2022-04-11T09:18:53Z</time>
					</trkpt>
					<trkpt lat="43.764180" lon="4.898000">
						<ele>138</ele>
						<time>2022-04-11T09:19:27Z</time>
					</trkpt>
					<trkpt lat="43.764230" lon="4.898190">
						<ele>139</ele>
						<time>2022-04-11T09:19:47Z</time>
					</trkpt>
					<trkpt lat="43.764220" lon="4.898350">
						<ele>139</ele>
						<time>2022-04-11T09:20:02Z</time>
					</trkpt>
					<trkpt lat="43.764290" lon="4.898560">
						<ele>139</ele>
						<time>2022-04-11T09:20:25Z</time>
					</trkpt>
					<trkpt lat="43.764560" lon="4.898710">
						<ele>137</ele>
						<time>2022-04-11T09:21:03Z</time>
					</trkpt>
					<trkpt lat="43.765150" lon="4.898960">
						<ele>132</ele>
						<time>2022-04-11T09:22:26Z</time>
					</trkpt>
					<trkpt lat="43.765380" lon="4.899050">
						<ele>130</ele>
						<time>2022-04-11T09:22:58Z</time>
					</trkpt>
					<trkpt lat="43.765550" lon="4.899080">
						<ele>129</ele>
						<time>2022-04-11T09:23:21Z</time>
					</trkpt>
					<trkpt lat="43.766160" lon="4.899310">
						<ele>127</ele>
						<time>2022-04-11T09:24:45Z</time>
					</trkpt>
					<trkpt lat="43.766190" lon="4.899430">
						<ele>127</ele>
						<time>2022-04-11T09:24:57Z</time>
					</trkpt>
					<trkpt lat="43.766140" lon="4.899640">
						<ele>127</ele>
						<time>2022-04-11T09:25:18Z</time>
					</trkpt>
					<trkpt lat="43.766060" lon="4.899650">
						<ele>127</ele>
						<time>2022-04-11T09:25:29Z</time>
					</trkpt>
					<trkpt lat="43.766000" lon="4.899630">
						<ele>127</ele>
						<time>2022-04-11T09:25:37Z</time>
					</trkpt>
					<trkpt lat="43.766040" lon="4.899750">
						<ele>127</ele>
						<time>2022-04-11T09:25:50Z</time>
					</trkpt>
					<trkpt lat="43.765820" lon="4.900660">
						<ele>126</ele>
						<time>2022-04-11T09:27:23Z</time>
					</trkpt>
					<trkpt lat="43.765390" lon="4.902010">
						<ele>126</ele>
						<time>2022-04-11T09:29:45Z</time>
					</trkpt>
					<trkpt lat="43.765250" lon="4.902330">
						<ele>125</ele>
						<time>2022-04-11T09:30:21Z</time>
					</trkpt>
					<trkpt lat="43.765320" lon="4.902340">
						<ele>125</ele>
						<time>2022-04-11T09:30:30Z</time>
					</trkpt>
					<trkpt lat="43.765190" lon="4.902560">
						<ele>124</ele>
						<time>2022-04-11T09:30:58Z</time>
					</trkpt>
					<trkpt lat="43.765130" lon="4.902770">
						<ele>124</ele>
						<time>2022-04-11T09:31:19Z</time>
					</trkpt>
					<trkpt lat="43.764790" lon="4.904480">
						<ele>125</ele>
						<time>2022-04-11T09:34:10Z</time>
					</trkpt>
					<trkpt lat="43.764800" lon="4.905090">
						<ele>127</ele>
						<time>2022-04-11T09:35:09Z</time>
					</trkpt>
					<trkpt lat="43.764760" lon="4.905350">
						<ele>128</ele>
						<time>2022-04-11T09:35:35Z</time>
					</trkpt>
					<trkpt lat="43.764560" lon="4.906150">
						<ele>130</ele>
						<time>2022-04-11T09:36:56Z</time>
					</trkpt>
					<trkpt lat="43.764470" lon="4.906400">
						<ele>130</ele>
						<time>2022-04-11T09:37:23Z</time>
					</trkpt>
					<trkpt lat="43.764370" lon="4.906840">
						<ele>130</ele>
						<time>2022-04-11T09:38:08Z</time>
					</trkpt>
					<trkpt lat="43.764350" lon="4.907060">
						<ele>130</ele>
						<time>2022-04-11T09:38:29Z</time>
					</trkpt>
					<trkpt lat="43.763920" lon="4.908370">
						<ele>131</ele>
						<time>2022-04-11T09:40:48Z</time>
					</trkpt>
					<trkpt lat="43.763520" lon="4.909240">
						<ele>131</ele>
						<time>2022-04-11T09:42:27Z</time>
					</trkpt>
					<trkpt lat="43.763430" lon="4.909500">
						<ele>131</ele>
						<time>2022-04-11T09:42:55Z</time>
					</trkpt>
					<trkpt lat="43.763280" lon="4.910090">
						<ele>130</ele>
						<time>2022-04-11T09:43:55Z</time>
					</trkpt>
					<trkpt lat="43.763250" lon="4.910630">
						<ele>129</ele>
						<time>2022-04-11T09:44:47Z</time>
					</trkpt>
					<trkpt lat="43.763250" lon="4.911430">
						<ele>129</ele>
						<time>2022-04-11T09:46:05Z</time>
					</trkpt>
					<trkpt lat="43.763080" lon="4.912160">
						<ele>129</ele>
						<time>2022-04-11T09:47:18Z</time>
					</trkpt>
					<trkpt lat="43.762800" lon="4.913050">
						<ele>128</ele>
						<time>2022-04-11T09:48:52Z</time>
					</trkpt>
					<trkpt lat="43.762710" lon="4.913580">
						<ele>127</ele>
						<time>2022-04-11T09:49:45Z</time>
					</trkpt>
					<trkpt lat="43.762640" lon="4.913840">
						<ele>127</ele>
						<time>2022-04-11T09:50:11Z</time>
					</trkpt>
					<trkpt lat="43.762620" lon="4.914170">
						<ele>126</ele>
						<time>2022-04-11T09:50:43Z</time>
					</trkpt>
					<trkpt lat="43.762660" lon="4.914470">
						<ele>125</ele>
						<time>2022-04-11T09:51:13Z</time>
					</trkpt>
					<trkpt lat="43.762670" lon="4.914930">
						<ele>124</ele>
						<time>2022-04-11T09:51:57Z</time>
					</trkpt>
					<trkpt lat="43.762710" lon="4.915270">
						<ele>123</ele>
						<time>2022-04-11T09:52:30Z</time>
					</trkpt>
					<trkpt lat="43.762690" lon="4.915560">
						<ele>123</ele>
						<time>2022-04-11T09:52:58Z</time>
					</trkpt>
					<trkpt lat="43.762620" lon="4.915920">
						<ele>123</ele>
						<time>2022-04-11T09:53:34Z</time>
					</trkpt>
					<trkpt lat="43.762700" lon="4.916060">
						<ele>122</ele>
						<time>2022-04-11T09:53:51Z</time>
					</trkpt>
					<trkpt lat="43.762860" lon="4.916220">
						<ele>120</ele>
						<time>2022-04-11T09:54:18Z</time>
					</trkpt>
					<trkpt lat="43.762930" lon="4.916130">
						<ele>120</ele>
						<time>2022-04-11T09:54:30Z</time>
					</trkpt>
					<trkpt lat="43.762990" lon="4.915930">
						<ele>120</ele>
						<time>2022-04-11T09:54:51Z</time>
					</trkpt>
					<trkpt lat="43.763040" lon="4.915910">
						<ele>120</ele>
						<time>2022-04-11T09:54:58Z</time>
					</trkpt>
					<trkpt lat="43.763240" lon="4.915730">
						<ele>119</ele>
						<time>2022-04-11T09:55:30Z</time>
					</trkpt>
					<trkpt lat="43.763390" lon="4.915560">
						<ele>118</ele>
						<time>2022-04-11T09:55:56Z</time>
					</trkpt>
					<trkpt lat="43.763640" lon="4.915440">
						<ele>116</ele>
						<time>2022-04-11T09:56:31Z</time>
					</trkpt>
					<trkpt lat="43.764330" lon="4.914980">
						<ele>111</ele>
						<time>2022-04-11T09:58:13Z</time>
					</trkpt>
					<trkpt lat="43.767820" lon="4.912480">
						<ele>99</ele>
						<time>2022-04-11T10:06:58Z</time>
					</trkpt>
					<trkpt lat="43.769390" lon="4.911390">
						<ele>94</ele>
						<time>2022-04-11T10:10:52Z</time>
					</trkpt>
					<trkpt lat="43.769760" lon="4.911090">
						<ele>93</ele>
						<time>2022-04-11T10:11:49Z</time>
					</trkpt>
					<trkpt lat="43.769920" lon="4.910920">
						<ele>92</ele>
						<time>2022-04-11T10:12:16Z</time>
					</trkpt>
					<trkpt lat="43.770290" lon="4.910770">
						<ele>90</ele>
						<time>2022-04-11T10:13:08Z</time>
					</trkpt>
					<trkpt lat="43.770380" lon="4.910670">
						<ele>90</ele>
						<time>2022-04-11T10:13:23Z</time>
					</trkpt>
					<trkpt lat="43.770400" lon="4.910570">
						<ele>90</ele>
						<time>2022-04-11T10:13:33Z</time>
					</trkpt>
					<trkpt lat="43.770540" lon="4.910530">
						<ele>89</ele>
						<time>2022-04-11T10:13:52Z</time>
					</trkpt>
					<trkpt lat="43.770710" lon="4.910390">
						<ele>89</ele>
						<time>2022-04-11T10:14:19Z</time>
					</trkpt>
					<trkpt lat="43.771210" lon="4.909290">
						<ele>89</ele>
						<time>2022-04-11T10:16:24Z</time>
					</trkpt>
					<trkpt lat="43.771520" lon="4.908480">
						<ele>87</ele>
						<time>2022-04-11T10:17:52Z</time>
					</trkpt>
					<trkpt lat="43.771620" lon="4.908280">
						<ele>86</ele>
						<time>2022-04-11T10:18:16Z</time>
					</trkpt>
					<trkpt lat="43.771960" lon="4.907320">
						<ele>86</ele>
						<time>2022-04-11T10:19:59Z</time>
					</trkpt>
					<trkpt lat="43.772150" lon="4.906670">
						<ele>85</ele>
						<time>2022-04-11T10:21:06Z</time>
					</trkpt>
					<trkpt lat="43.772510" lon="4.905900">
						<ele>85</ele>
						<time>2022-04-11T10:22:35Z</time>
					</trkpt>
					<trkpt lat="43.772690" lon="4.905570">
						<ele>84</ele>
						<time>2022-04-11T10:23:14Z</time>
					</trkpt>
					<trkpt lat="43.772780" lon="4.905600">
						<ele>84</ele>
						<time>2022-04-11T10:23:27Z</time>
					</trkpt>
					<trkpt lat="43.772830" lon="4.905650">
						<ele>84</ele>
						<time>2022-04-11T10:23:35Z</time>
					</trkpt>
					<trkpt lat="43.772960" lon="4.905650">
						<ele>83</ele>
						<time>2022-04-11T10:23:52Z</time>
					</trkpt>
					<trkpt lat="43.774770" lon="4.906180">
						<ele>78</ele>
						<time>2022-04-11T10:27:59Z</time>
					</trkpt>
					<trkpt lat="43.774910" lon="4.905980">
						<ele>78</ele>
						<time>2022-04-11T10:28:26Z</time>
					</trkpt>
					<trkpt lat="43.774900" lon="4.905710">
						<ele>78</ele>
						<time>2022-04-11T10:28:52Z</time>
					</trkpt>
					<trkpt lat="43.774970" lon="4.904980">
						<ele>77</ele>
						<time>2022-04-11T10:30:03Z</time>
					</trkpt>
					<trkpt lat="43.775070" lon="4.904300">
						<ele>76</ele>
						<time>2022-04-11T10:31:10Z</time>
					</trkpt>
					<trkpt lat="43.775210" lon="4.903050">
						<ele>76</ele>
						<time>2022-04-11T10:33:12Z</time>
					</trkpt>
					<trkpt lat="43.775480" lon="4.901160">
						<ele>75</ele>
						<time>2022-04-11T10:36:18Z</time>
					</trkpt>
					<trkpt lat="43.775690" lon="4.900140">
						<ele>75</ele>
						<time>2022-04-11T10:38:00Z</time>
					</trkpt>
					<trkpt lat="43.775740" lon="4.900070">
						<ele>75</ele>
						<time>2022-04-11T10:38:09Z</time>
					</trkpt>
					<trkpt lat="43.775760" lon="4.899940">
						<ele>75</ele>
						<time>2022-04-11T10:38:22Z</time>
					</trkpt>
					<trkpt lat="43.776100" lon="4.898830">
						<ele>77</ele>
						<time>2022-04-11T10:40:18Z</time>
					</trkpt>
					<trkpt lat="43.776400" lon="4.898010">
						<ele>77</ele>
						<time>2022-04-11T10:41:47Z</time>
					</trkpt>
					<trkpt lat="43.776980" lon="4.896680">
						<ele>75</ele>
						<time>2022-04-11T10:44:16Z</time>
					</trkpt>
					<trkpt lat="43.777270" lon="4.895750">
						<ele>76</ele>
						<time>2022-04-11T10:45:54Z</time>
					</trkpt>
					<trkpt lat="43.777460" lon="4.894900">
						<ele>76</ele>
						<time>2022-04-11T10:47:20Z</time>
					</trkpt>
					<trkpt lat="43.777640" lon="4.893660">
						<ele>76</ele>
						<time>2022-04-11T10:49:22Z</time>
					</trkpt>
					<trkpt lat="43.777630" lon="4.892930">
						<ele>77</ele>
						<time>2022-04-11T10:50:32Z</time>
					</trkpt>
					<trkpt lat="43.777590" lon="4.892300">
						<ele>78</ele>
						<time>2022-04-11T10:51:33Z</time>
					</trkpt>
					<trkpt lat="43.777640" lon="4.891820">
						<ele>78</ele>
						<time>2022-04-11T10:52:20Z</time>
					</trkpt>
					<trkpt lat="43.778170" lon="4.889900">
						<ele>77</ele>
						<time>2022-04-11T10:55:38Z</time>
					</trkpt>
					<trkpt lat="43.778160" lon="4.889930">
						<ele>77</ele>
						<time>2022-04-11T10:55:41Z</time>
					</trkpt>
					<trkpt lat="43.778190" lon="4.889970">
						<ele>77</ele>
						<time>2022-04-11T10:55:47Z</time>
					</trkpt>
					<trkpt lat="43.777980" lon="4.889980">
						<ele>78</ele>
						<time>2022-04-11T10:56:15Z</time>
					</trkpt>
					<trkpt lat="43.777790" lon="4.889970">
						<ele>79</ele>
						<time>2022-04-11T10:56:40Z</time>
					</trkpt>
					<trkpt lat="43.777640" lon="4.889930">
						<ele>79</ele>
						<time>2022-04-11T10:57:00Z</time>
					</trkpt>
					<trkpt lat="43.777290" lon="4.889930">
						<ele>81</ele>
						<time>2022-04-11T10:57:47Z</time>
					</trkpt>
					<trkpt lat="43.776580" lon="4.889880">
						<ele>85</ele>
						<time>2022-04-11T10:59:22Z</time>
					</trkpt>
					<trkpt lat="43.776430" lon="4.889890">
						<ele>86</ele>
						<time>2022-04-11T10:59:42Z</time>
					</trkpt>
					<trkpt lat="43.776260" lon="4.889950">
						<ele>87</ele>
						<time>2022-04-11T11:00:05Z</time>
					</trkpt>
					<trkpt lat="43.774920" lon="4.891460">
						<ele>92</ele>
						<time>2022-04-11T11:03:56Z</time>
					</trkpt>
					<trkpt lat="43.774590" lon="4.891840">
						<ele>93</ele>
						<time>2022-04-11T11:04:53Z</time>
					</trkpt>
					<trkpt lat="43.774530" lon="4.891940">
						<ele>93</ele>
						<time>2022-04-11T11:05:06Z</time>
					</trkpt>
					<trkpt lat="43.773890" lon="4.892640">
						<ele>94</ele>
						<time>2022-04-11T11:06:54Z</time>
					</trkpt>
					<trkpt lat="43.773780" lon="4.892790">
						<ele>94</ele>
						<time>2022-04-11T11:07:15Z</time>
					</trkpt>
					<trkpt lat="43.773620" lon="4.892940">
						<ele>94</ele>
						<time>2022-04-11T11:07:41Z</time>
					</trkpt>
					<trkpt lat="43.773300" lon="4.893330">
						<ele>93</ele>
						<time>2022-04-11T11:08:38Z</time>
					</trkpt>
					<trkpt lat="43.773110" lon="4.893530">
						<ele>93</ele>
						<time>2022-04-11T11:09:10Z</time>
					</trkpt>
					<trkpt lat="43.772900" lon="4.893660">
						<ele>94</ele>
						<time>2022-04-11T11:09:40Z</time>
					</trkpt>
					<trkpt lat="43.772260" lon="4.893690">
						<ele>97</ele>
						<time>2022-04-11T11:11:06Z</time>
					</trkpt>
					<trkpt lat="43.772080" lon="4.893660">
						<ele>98</ele>
						<time>2022-04-11T11:11:30Z</time>
					</trkpt>
					<trkpt lat="43.770620" lon="4.893620">
						<ele>101</ele>
						<time>2022-04-11T11:14:45Z</time>
					</trkpt>
					<trkpt lat="43.769690" lon="4.893520">
						<ele>103</ele>
						<time>2022-04-11T11:16:49Z</time>
					</trkpt>
					<trkpt lat="43.769450" lon="4.893470">
						<ele>104</ele>
						<time>2022-04-11T11:17:22Z</time>
					</trkpt>
					<trkpt lat="43.768460" lon="4.893350">
						<ele>109</ele>
						<time>2022-04-11T11:19:34Z</time>
					</trkpt>
					<trkpt lat="43.768410" lon="4.893260">
						<ele>110</ele>
						<time>2022-04-11T11:19:45Z</time>
					</trkpt>
					<trkpt lat="43.768430" lon="4.893290">
						<ele>110</ele>
						<time>2022-04-11T11:19:49Z</time>
					</trkpt>
					<trkpt lat="43.768420" lon="4.893330">
						<ele>109</ele>
						<time>2022-04-11T11:19:53Z</time>
					</trkpt>
					</trkseg>
				</trk>
			</gpx>